Hauptseite
METAR-TAF:

METAR-TAF

Flughäfen :

Larnaka, Zypern

Flughafen Larnaka

Breite: 34-53N, Länge: 033-38E, Höhe: 2 m

Beobachtung

Neuester Wetterbericht von vor 15 Minuten, um 12:00 UTC
Wind 15 kt aus Süd/Südwest
Temperatur 27°C
Luftfeuchtigkeit 17%
Luftdruck 1013 hPa
Sichtweite 10 km oder mehr
keine Wolken unter 1500 m und keine Kumulonimbus oder Gewitterwolken

METAR: LCLK 281200Z 20015KT CAVOK 27/00 Q1013 NOSIG

Zeit: 15:15 (12:15 UTC)

Prognose

Neuester Wetterbericht von vor 45 Minuten, um 11:30 UTC
Gültige Prognose vom 28 um 12 UTC bis 29 um 12 UTC
Wind 14 kt aus Süd/Südwest
Sichtweite 10 km oder mehr
keine Wolken unter 1500 m und keine Kumulonimbus oder Gewitterwolken
Übergehend zu
vom 28 um 17 UTC bis 28 um 20 UTC
Wind 6 kt aus Nordwest
Übergehend zu
vom 29 um 09 UTC bis 29 um 12 UTC
Wind 12 kt aus Süd

TAF: LCLK 281130Z 2812/2912 21014KT CAVOK BECMG 2817/2820 32006KT BECMG 2909/2912 17012KT

Wetterbeobachtungen und Prognosen von mehr als 4000 Flughäfen (METAR und TAF Bericht).

Die verfügbaren Stationen werden durch gelbe und rote Markierungen auf der Karte dargestellt.

Führen Sie die Maus auf sie, um den Namen der Station zu sehen.

Darauf klicken, um die Beobachtung von Wetterbeobachtungen und Prognosen zu sehen.

Um die Karte zu ändern : klicken Sie auf den grünen Tasten mit einem schwarzen Kreuz Zum Vergrößern, auf den grünen Button mit einem Gedankenstrich zu verkleinern, oder auf die grünen Pfeile für benachbarte Karten.


METAR-TAF: